sensor_id;sensor_type;location;lat;lon;timestamp;pressure;altitude;pressure_sealevel;temperature;humidity
22651;BME280;11492;42.646;23.400;2023-06-14T00:01:01;94748.47;;;17.77;89.80
22651;BME280;11492;42.646;23.400;2023-06-14T00:03:28;94742.78;;;17.80;89.51
22651;BME280;11492;42.646;23.400;2023-06-14T00:05:54;94748.59;;;17.82;89.33
22651;BME280;11492;42.646;23.400;2023-06-14T00:08:19;94747.00;;;17.81;89.96
22651;BME280;11492;42.646;23.400;2023-06-14T00:10:46;94745.75;;;17.83;90.04
22651;BME280;11492;42.646;23.400;2023-06-14T00:13:12;94736.06;;;17.84;89.91
22651;BME280;11492;42.646;23.400;2023-06-14T00:15:38;94734.38;;;17.78;89.82
22651;BME280;11492;42.646;23.400;2023-06-14T00:18:04;94739.97;;;17.81;89.48
22651;BME280;11492;42.646;23.400;2023-06-14T00:20:32;94737.91;;;17.83;89.62
22651;BME280;11492;42.646;23.400;2023-06-14T00:22:58;94732.69;;;17.72;89.64
22651;BME280;11492;42.646;23.400;2023-06-14T00:25:24;94723.28;;;17.71;89.15
22651;BME280;11492;42.646;23.400;2023-06-14T00:27:54;94728.50;;;17.71;88.60
22651;BME280;11492;42.646;23.400;2023-06-14T00:30:20;94721.34;;;17.67;88.03
22651;BME280;11492;42.646;23.400;2023-06-14T00:32:46;94721.00;;;17.63;86.68
22651;BME280;11492;42.646;23.400;2023-06-14T00:35:12;94719.84;;;17.59;87.20
22651;BME280;11492;42.646;23.400;2023-06-14T00:37:38;94726.09;;;17.47;86.92
22651;BME280;11492;42.646;23.400;2023-06-14T00:40:04;94726.66;;;17.49;86.51
22651;BME280;11492;42.646;23.400;2023-06-14T00:42:30;94728.94;;;17.46;86.10
22651;BME280;11492;42.646;23.400;2023-06-14T00:44:56;94724.06;;;17.38;85.95
22651;BME280;11492;42.646;23.400;2023-06-14T00:47:22;94728.25;;;17.39;86.39
22651;BME280;11492;42.646;23.400;2023-06-14T00:49:48;94718.28;;;17.36;86.34
22651;BME280;11492;42.646;23.400;2023-06-14T00:52:15;94716.88;;;17.33;86.86
22651;BME280;11492;42.646;23.400;2023-06-14T00:54:41;94712.56;;;17.39;86.61
22651;BME280;11492;42.646;23.400;2023-06-14T00:57:07;94720.66;;;17.37;87.03
22651;BME280;11492;42.646;23.400;2023-06-14T00:59:35;94719.06;;;17.36;86.58
22651;BME280;11492;42.646;23.400;2023-06-14T01:02:04;94718.03;;;17.37;86.79
22651;BME280;11492;42.646;23.400;2023-06-14T01:04:29;94718.72;;;17.33;86.29
22651;BME280;11492;42.646;23.400;2023-06-14T01:07:05;94711.91;;;17.32;86.17
22651;BME280;11492;42.646;23.400;2023-06-14T01:15:38;94713.03;;;17.24;85.96
22651;BME280;11492;42.646;23.400;2023-06-14T01:18:05;94712.81;;;17.26;86.49
22651;BME280;11492;42.646;23.400;2023-06-14T01:20:34;94711.00;;;17.26;86.27
22651;BME280;11492;42.646;23.400;2023-06-14T01:23:01;94709.19;;;17.27;86.04
22651;BME280;11492;42.646;23.400;2023-06-14T01:25:27;94721.19;;;17.28;86.32
22651;BME280;11492;42.646;23.400;2023-06-14T01:27:56;94720.09;;;17.24;86.31
22651;BME280;11492;42.646;23.400;2023-06-14T01:30:23;94718.47;;;17.23;86.90
22651;BME280;11492;42.646;23.400;2023-06-14T01:32:51;94711.66;;;17.22;85.80
22651;BME280;11492;42.646;23.400;2023-06-14T01:35:17;94712.03;;;17.25;86.39
22651;BME280;11492;42.646;23.400;2023-06-14T01:37:43;94725.44;;;17.29;86.40
22651;BME280;11492;42.646;23.400;2023-06-14T01:40:13;94714.19;;;17.28;86.27
22651;BME280;11492;42.646;23.400;2023-06-14T01:42:40;94713.16;;;17.29;86.31
22651;BME280;11492;42.646;23.400;2023-06-14T01:45:06;94715.97;;;17.28;85.52
22651;BME280;11492;42.646;23.400;2023-06-14T01:47:33;94715.91;;;17.34;85.97
22651;BME280;11492;42.646;23.400;2023-06-14T01:49:59;94710.88;;;17.33;86.02
22651;BME280;11492;42.646;23.400;2023-06-14T01:52:25;94708.50;;;17.31;86.03
22651;BME280;11492;42.646;23.400;2023-06-14T01:54:51;94705.78;;;17.26;85.89
22651;BME280;11492;42.646;23.400;2023-06-14T01:57:16;94701.34;;;17.27;85.58
22651;BME280;11492;42.646;23.400;2023-06-14T01:59:42;94712.81;;;17.26;85.83
22651;BME280;11492;42.646;23.400;2023-06-14T02:02:08;94717.69;;;17.22;86.43
22651;BME280;11492;42.646;23.400;2023-06-14T02:04:33;94708.03;;;17.23;85.87
22651;BME280;11492;42.646;23.400;2023-06-14T02:06:59;94719.38;;;17.17;86.36
22651;BME280;11492;42.646;23.400;2023-06-14T02:09:25;94722.22;;;17.16;86.71
22651;BME280;11492;42.646;23.400;2023-06-14T02:11:50;94727.56;;;17.09;86.34
22651;BME280;11492;42.646;23.400;2023-06-14T02:14:16;94731.03;;;17.03;87.01
22651;BME280;11492;42.646;23.400;2023-06-14T02:16:42;94726.25;;;17.00;87.73
22651;BME280;11492;42.646;23.400;2023-06-14T02:19:15;94738.78;;;17.10;87.34
22651;BME280;11492;42.646;23.400;2023-06-14T02:21:41;94742.31;;;17.15;87.38
22651;BME280;11492;42.646;23.400;2023-06-14T02:24:07;94738.00;;;17.21;87.89
22651;BME280;11492;42.646;23.400;2023-06-14T02:26:32;94739.81;;;17.20;87.90
22651;BME280;11492;42.646;23.400;2023-06-14T02:28:58;94738.13;;;17.25;88.27
22651;BME280;11492;42.646;23.400;2023-06-14T02:31:23;94737.69;;;17.28;88.49
22651;BME280;11492;42.646;23.400;2023-06-14T02:33:49;94740.84;;;17.30;88.67
22651;BME280;11492;42.646;23.400;2023-06-14T02:36:15;94744.81;;;17.33;88.89
22651;BME280;11492;42.646;23.400;2023-06-14T02:38:40;94738.00;;;17.32;88.73
22651;BME280;11492;42.646;23.400;2023-06-14T02:41:06;94738.81;;;17.32;88.78
22651;BME280;11492;42.646;23.400;2023-06-14T02:43:31;94734.16;;;17.34;89.32
22651;BME280;11492;42.646;23.400;2023-06-14T02:45:57;94737.56;;;17.35;89.73
22651;BME280;11492;42.646;23.400;2023-06-14T02:48:22;94740.75;;;17.37;88.98
22651;BME280;11492;42.646;23.400;2023-06-14T02:50:48;94741.22;;;17.34;88.51
22651;BME280;11492;42.646;23.400;2023-06-14T02:53:13;94748.81;;;17.35;88.77
22651;BME280;11492;42.646;23.400;2023-06-14T02:55:38;94742.31;;;17.38;89.18
22651;BME280;11492;42.646;23.400;2023-06-14T02:58:05;94744.72;;;17.39;89.46
22651;BME280;11492;42.646;23.400;2023-06-14T03:00:30;94748.13;;;17.40;89.79
22651;BME280;11492;42.646;23.400;2023-06-14T03:02:56;94746.31;;;17.40;90.04
22651;BME280;11492;42.646;23.400;2023-06-14T03:05:21;94747.47;;;17.44;89.47
22651;BME280;11492;42.646;23.400;2023-06-14T03:07:47;94750.63;;;17.46;89.37
22651;BME280;11492;42.646;23.400;2023-06-14T03:10:13;94755.63;;;17.47;89.70
22651;BME280;11492;42.646;23.400;2023-06-14T03:12:39;94752.78;;;17.49;89.74
22651;BME280;11492;42.646;23.400;2023-06-14T03:15:05;94755.19;;;17.50;90.04
22651;BME280;11492;42.646;23.400;2023-06-14T03:17:30;94754.16;;;17.51;89.45
22651;BME280;11492;42.646;23.400;2023-06-14T03:19:59;94758.81;;;17.49;90.00
22651;BME280;11492;42.646;23.400;2023-06-14T03:22:25;94766.19;;;17.52;90.00
22651;BME280;11492;42.646;23.400;2023-06-14T03:24:51;94764.16;;;17.54;89.66
22651;BME280;11492;42.646;23.400;2023-06-14T03:27:17;94766.53;;;17.56;89.72
22651;BME280;11492;42.646;23.400;2023-06-14T03:29:43;94758.94;;;17.54;89.57
22651;BME280;11492;42.646;23.400;2023-06-14T03:32:09;94762.91;;;17.57;89.06
22651;BME280;11492;42.646;23.400;2023-06-14T03:34:35;94759.59;;;17.61;89.05
22651;BME280;11492;42.646;23.400;2023-06-14T03:37:00;94760.75;;;17.65;89.66
22651;BME280;11492;42.646;23.400;2023-06-14T03:39:26;94754.50;;;17.66;89.77
22651;BME280;11492;42.646;23.400;2023-06-14T03:41:51;94763.38;;;17.65;88.42
22651;BME280;11492;42.646;23.400;2023-06-14T03:44:17;94764.47;;;17.69;87.61
22651;BME280;11492;42.646;23.400;2023-06-14T03:46:46;94765.19;;;17.65;87.82
22651;BME280;11492;42.646;23.400;2023-06-14T03:49:12;94765.97;;;17.65;88.68
22651;BME280;11492;42.646;23.400;2023-06-14T03:51:38;94763.38;;;17.65;88.50
22651;BME280;11492;42.646;23.400;2023-06-14T03:54:05;94762.34;;;17.66;87.80
22651;BME280;11492;42.646;23.400;2023-06-14T03:56:30;94772.78;;;17.66;88.13
22651;BME280;11492;42.646;23.400;2023-06-14T03:58:56;94763.47;;;17.70;88.78
22651;BME280;11492;42.646;23.400;2023-06-14T04:01:21;94770.41;;;17.76;89.00
22651;BME280;11492;42.646;23.400;2023-06-14T04:03:55;94770.16;;;17.77;88.45
22651;BME280;11492;42.646;23.400;2023-06-14T04:06:20;94773.34;;;17.79;88.34
22651;BME280;11492;42.646;23.400;2023-06-14T04:08:46;94774.13;;;17.80;88.26
22651;BME280;11492;42.646;23.400;2023-06-14T04:11:11;94769.94;;;17.79;87.87
22651;BME280;11492;42.646;23.400;2023-06-14T04:13:37;94782.66;;;17.75;88.27
22651;BME280;11492;42.646;23.400;2023-06-14T04:16:04;94788.22;;;17.79;87.72
22651;BME280;11492;42.646;23.400;2023-06-14T04:18:30;94775.75;;;17.81;88.68
22651;BME280;11492;42.646;23.400;2023-06-14T04:20:55;94776.41;;;17.88;87.24
22651;BME280;11492;42.646;23.400;2023-06-14T04:23:21;94782.78;;;17.92;87.17
22651;BME280;11492;42.646;23.400;2023-06-14T04:25:47;94774.47;;;17.95;86.77
22651;BME280;11492;42.646;23.400;2023-06-14T04:28:14;94772.88;;;17.94;86.13
22651;BME280;11492;42.646;23.400;2023-06-14T04:30:43;94783.47;;;17.98;85.83
22651;BME280;11492;42.646;23.400;2023-06-14T04:33:10;94784.50;;;17.98;85.28
22651;BME280;11492;42.646;23.400;2023-06-14T04:35:36;94777.34;;;18.04;85.79
22651;BME280;11492;42.646;23.400;2023-06-14T04:38:03;94774.03;;;18.09;86.34
22651;BME280;11492;42.646;23.400;2023-06-14T04:40:37;94777.09;;;18.17;86.47
22651;BME280;11492;42.646;23.400;2023-06-14T04:43:08;94776.63;;;18.20;85.50
22651;BME280;11492;42.646;23.400;2023-06-14T04:45:34;94772.97;;;18.21;85.70
22651;BME280;11492;42.646;23.400;2023-06-14T04:47:59;94767.53;;;18.23;83.80
22651;BME280;11492;42.646;23.400;2023-06-14T04:50:25;94780.81;;;18.32;83.56
22651;BME280;11492;42.646;23.400;2023-06-14T04:52:50;94775.34;;;18.34;82.79
22651;BME280;11492;42.646;23.400;2023-06-14T04:55:17;94789.91;;;18.30;83.26
22651;BME280;11492;42.646;23.400;2023-06-14T04:57:44;94784.56;;;18.25;83.35
22651;BME280;11492;42.646;23.400;2023-06-14T05:00:10;94787.16;;;18.36;83.30
22651;BME280;11492;42.646;23.400;2023-06-14T05:02:36;94782.72;;;18.37;83.34
22651;BME280;11492;42.646;23.400;2023-06-14T05:05:03;94784.66;;;18.41;82.86
22651;BME280;11492;42.646;23.400;2023-06-14T05:07:31;94790.00;;;18.35;83.21
22651;BME280;11492;42.646;23.400;2023-06-14T05:09:59;94785.34;;;18.37;83.03
22651;BME280;11492;42.646;23.400;2023-06-14T05:12:24;94794.53;;;18.50;83.58
22651;BME280;11492;42.646;23.400;2023-06-14T05:14:50;94792.81;;;18.56;83.20
22651;BME280;11492;42.646;23.400;2023-06-14T05:17:15;94798.94;;;18.61;82.91
22651;BME280;11492;42.646;23.400;2023-06-14T05:19:42;94795.97;;;18.69;82.92
22651;BME280;11492;42.646;23.400;2023-06-14T05:22:07;94799.22;;;18.76;81.19
22651;BME280;11492;42.646;23.400;2023-06-14T05:24:33;94806.50;;;18.85;81.18
22651;BME280;11492;42.646;23.400;2023-06-14T05:26:58;94807.94;;;18.93;81.31
22651;BME280;11492;42.646;23.400;2023-06-14T05:29:24;94808.72;;;19.04;80.82
22651;BME280;11492;42.646;23.400;2023-06-14T05:31:50;94809.91;;;19.13;80.04
22651;BME280;11492;42.646;23.400;2023-06-14T05:34:15;94806.69;;;19.23;79.83
22651;BME280;11492;42.646;23.400;2023-06-14T05:36:41;94818.03;;;19.28;79.39
22651;BME280;11492;42.646;23.400;2023-06-14T05:39:06;94821.09;;;19.36;79.11
22651;BME280;11492;42.646;23.400;2023-06-14T05:41:32;94814.09;;;19.42;78.58
22651;BME280;11492;42.646;23.400;2023-06-14T05:43:57;94809.25;;;19.50;78.61
22651;BME280;11492;42.646;23.400;2023-06-14T05:46:23;94809.13;;;19.56;78.50
22651;BME280;11492;42.646;23.400;2023-06-14T05:48:53;94819.03;;;19.54;77.45
22651;BME280;11492;42.646;23.400;2023-06-14T05:51:18;94821.25;;;19.62;76.98
22651;BME280;11492;42.646;23.400;2023-06-14T05:53:45;94825.34;;;19.70;77.62
22651;BME280;11492;42.646;23.400;2023-06-14T05:56:11;94823.59;;;19.75;76.31
22651;BME280;11492;42.646;23.400;2023-06-14T05:58:37;94826.53;;;19.78;76.97
22651;BME280;11492;42.646;23.400;2023-06-14T06:01:02;94823.44;;;19.81;77.81
22651;BME280;11492;42.646;23.400;2023-06-14T06:03:27;94820.59;;;19.83;76.85
22651;BME280;11492;42.646;23.400;2023-06-14T06:05:54;94824.72;;;19.79;75.77
22651;BME280;11492;42.646;23.400;2023-06-14T06:08:20;94827.34;;;19.79;76.50
22651;BME280;11492;42.646;23.400;2023-06-14T06:10:46;94832.91;;;19.82;76.92
22651;BME280;11492;42.646;23.400;2023-06-14T06:13:11;94833.44;;;19.84;75.68
22651;BME280;11492;42.646;23.400;2023-06-14T06:15:37;94836.63;;;19.86;75.60
22651;BME280;11492;42.646;23.400;2023-06-14T06:18:02;94837.66;;;19.85;74.93
22651;BME280;11492;42.646;23.400;2023-06-14T06:20:29;94838.69;;;19.84;77.55
22651;BME280;11492;42.646;23.400;2023-06-14T06:22:57;94832.66;;;19.84;77.78
22651;BME280;11492;42.646;23.400;2023-06-14T06:25:23;94839.81;;;19.88;78.53
22651;BME280;11492;42.646;23.400;2023-06-14T06:27:51;94837.28;;;19.93;78.77
22651;BME280;11492;42.646;23.400;2023-06-14T06:30:17;94843.13;;;20.00;76.62
22651;BME280;11492;42.646;23.400;2023-06-14T06:32:43;94836.75;;;20.12;77.17
22651;BME280;11492;42.646;23.400;2023-06-14T06:35:08;94842.41;;;20.21;76.61
22651;BME280;11492;42.646;23.400;2023-06-14T06:37:36;94846.81;;;20.36;75.99
22651;BME280;11492;42.646;23.400;2023-06-14T06:40:01;94843.22;;;20.42;75.39
22651;BME280;11492;42.646;23.400;2023-06-14T06:42:29;94845.78;;;20.53;75.37
22651;BME280;11492;42.646;23.400;2023-06-14T06:44:54;94851.41;;;20.62;75.47
22651;BME280;11492;42.646;23.400;2023-06-14T06:47:20;94851.22;;;20.68;74.05
22651;BME280;11492;42.646;23.400;2023-06-14T06:49:45;94852.44;;;20.61;72.70
22651;BME280;11492;42.646;23.400;2023-06-14T06:52:10;94859.66;;;20.70;73.31
22651;BME280;11492;42.646;23.400;2023-06-14T06:54:36;94844.34;;;20.83;73.51
22651;BME280;11492;42.646;23.400;2023-06-14T06:57:01;94845.78;;;20.96;73.10
22651;BME280;11492;42.646;23.400;2023-06-14T06:59:27;94850.09;;;21.01;72.95
22651;BME280;11492;42.646;23.400;2023-06-14T07:01:53;94849.88;;;21.08;72.65
22651;BME280;11492;42.646;23.400;2023-06-14T07:04:18;94855.81;;;20.98;70.43
22651;BME280;11492;42.646;23.400;2023-06-14T07:06:43;94850.56;;;20.98;72.09
22651;BME280;11492;42.646;23.400;2023-06-14T07:09:09;94850.09;;;21.01;71.51
22651;BME280;11492;42.646;23.400;2023-06-14T07:11:44;94854.09;;;20.88;70.35
22651;BME280;11492;42.646;23.400;2023-06-14T07:14:10;94856.59;;;20.78;70.56
22651;BME280;11492;42.646;23.400;2023-06-14T07:16:36;94852.13;;;20.99;70.28
22651;BME280;11492;42.646;23.400;2023-06-14T07:19:02;94850.28;;;21.21;70.00
22651;BME280;11492;42.646;23.400;2023-06-14T07:21:28;94841.31;;;21.38;69.12
22651;BME280;11492;42.646;23.400;2023-06-14T07:23:54;94841.16;;;21.49;68.64
22651;BME280;11492;42.646;23.400;2023-06-14T07:26:19;94841.22;;;21.54;68.29
22651;BME280;11492;42.646;23.400;2023-06-14T07:28:46;94841.75;;;21.56;69.17
22651;BME280;11492;42.646;23.400;2023-06-14T07:31:12;94841.31;;;21.64;68.04
22651;BME280;11492;42.646;23.400;2023-06-14T07:33:38;94845.06;;;21.73;69.07
22651;BME280;11492;42.646;23.400;2023-06-14T07:36:04;94835.38;;;21.78;68.51
22651;BME280;11492;42.646;23.400;2023-06-14T07:38:29;94837.28;;;21.88;67.09
22651;BME280;11492;42.646;23.400;2023-06-14T07:40:54;94840.53;;;21.95;67.27
22651;BME280;11492;42.646;23.400;2023-06-14T07:43:20;94840.09;;;22.02;67.02
22651;BME280;11492;42.646;23.400;2023-06-14T07:45:45;94835.91;;;22.06;66.71
22651;BME280;11492;42.646;23.400;2023-06-14T07:48:11;94832.72;;;22.04;67.44
22651;BME280;11492;42.646;23.400;2023-06-14T07:50:36;94842.53;;;22.14;67.58
22651;BME280;11492;42.646;23.400;2023-06-14T07:53:02;94844.97;;;22.20;65.64
22651;BME280;11492;42.646;23.400;2023-06-14T07:55:27;94846.59;;;22.26;66.09
22651;BME280;11492;42.646;23.400;2023-06-14T07:57:54;94850.53;;;22.28;66.02
22651;BME280;11492;42.646;23.400;2023-06-14T08:00:20;94857.75;;;22.43;65.26
22651;BME280;11492;42.646;23.400;2023-06-14T08:02:46;94854.63;;;22.50;63.61
22651;BME280;11492;42.646;23.400;2023-06-14T08:05:12;94859.22;;;22.70;65.17
22651;BME280;11492;42.646;23.400;2023-06-14T08:07:38;94852.72;;;22.82;65.17
22651;BME280;11492;42.646;23.400;2023-06-14T08:10:05;94868.75;;;22.75;63.05
22651;BME280;11492;42.646;23.400;2023-06-14T08:12:31;94877.66;;;22.70;63.29
22651;BME280;11492;42.646;23.400;2023-06-14T08:14:57;94873.44;;;22.69;63.90
22651;BME280;11492;42.646;23.400;2023-06-14T08:17:22;94868.94;;;22.64;62.75
22651;BME280;11492;42.646;23.400;2023-06-14T08:19:48;94875.28;;;22.68;63.52
22651;BME280;11492;42.646;23.400;2023-06-14T08:22:13;94874.75;;;22.71;62.71
22651;BME280;11492;42.646;23.400;2023-06-14T08:24:39;94877.34;;;22.66;63.42
22651;BME280;11492;42.646;23.400;2023-06-14T08:27:06;94874.19;;;23.05;63.27
22651;BME280;11492;42.646;23.400;2023-06-14T08:29:31;94880.44;;;23.50;62.01
22651;BME280;11492;42.646;23.400;2023-06-14T08:31:57;94878.09;;;23.63;61.85
22651;BME280;11492;42.646;23.400;2023-06-14T08:34:22;94881.78;;;23.62;60.06
22651;BME280;11492;42.646;23.400;2023-06-14T08:36:51;94875.69;;;23.56;59.29
22651;BME280;11492;42.646;23.400;2023-06-14T08:39:16;94875.16;;;23.59;59.39
22651;BME280;11492;42.646;23.400;2023-06-14T08:41:47;94878.06;;;23.58;59.53
22651;BME280;11492;42.646;23.400;2023-06-14T08:44:16;94875.16;;;23.54;59.96
22651;BME280;11492;42.646;23.400;2023-06-14T08:46:42;94873.84;;;23.52;60.64
22651;BME280;11492;42.646;23.400;2023-06-14T08:49:11;94856.16;;;23.52;60.32
22651;BME280;11492;42.646;23.400;2023-06-14T08:51:37;94860.97;;;23.95;59.28
22651;BME280;11492;42.646;23.400;2023-06-14T08:54:03;94864.44;;;24.34;57.99
22651;BME280;11492;42.646;23.400;2023-06-14T08:56:31;94848.78;;;24.72;57.60
22651;BME280;11492;42.646;23.400;2023-06-14T08:58:57;94864.19;;;25.32;55.33
22651;BME280;11492;42.646;23.400;2023-06-14T09:01:28;94857.72;;;26.05;52.57
22651;BME280;11492;42.646;23.400;2023-06-14T09:03:53;94853.41;;;26.75;51.55
22651;BME280;11492;42.646;23.400;2023-06-14T09:06:23;94851.84;;;26.97;49.57
22651;BME280;11492;42.646;23.400;2023-06-14T09:08:50;94852.53;;;27.07;49.83
22651;BME280;11492;42.646;23.400;2023-06-14T09:11:17;94851.28;;;26.77;50.39
22651;BME280;11492;42.646;23.400;2023-06-14T09:13:44;94840.00;;;27.13;49.56
22651;BME280;11492;42.646;23.400;2023-06-14T09:16:10;94840.53;;;27.56;48.27
22651;BME280;11492;42.646;23.400;2023-06-14T09:18:44;94847.34;;;28.16;46.52
22651;BME280;11492;42.646;23.400;2023-06-14T09:21:13;94848.78;;;28.58;45.54
22651;BME280;11492;42.646;23.400;2023-06-14T09:23:46;94845.75;;;28.65;46.09
22651;BME280;11492;42.646;23.400;2023-06-14T09:26:12;94845.03;;;28.28;46.38
22651;BME280;11492;42.646;23.400;2023-06-14T09:28:48;94843.19;;;28.10;47.18
22651;BME280;11492;42.646;23.400;2023-06-14T09:31:19;94842.38;;;28.28;47.09
22651;BME280;11492;42.646;23.400;2023-06-14T09:33:46;94846.22;;;28.67;46.13
22651;BME280;11492;42.646;23.400;2023-06-14T09:36:17;94838.06;;;28.63;46.26
22651;BME280;11492;42.646;23.400;2023-06-14T09:39:01;94834.00;;;28.53;45.42
22651;BME280;11492;42.646;23.400;2023-06-14T09:41:34;94837.31;;;28.45;45.78
22651;BME280;11492;42.646;23.400;2023-06-14T09:44:01;94833.13;;;28.57;45.26
22651;BME280;11492;42.646;23.400;2023-06-14T09:46:28;94827.00;;;28.25;44.88
22651;BME280;11492;42.646;23.400;2023-06-14T09:48:58;94824.72;;;28.19;46.82
22651;BME280;11492;42.646;23.400;2023-06-14T09:51:23;94827.06;;;28.20;45.54
22651;BME280;11492;42.646;23.400;2023-06-14T09:53:50;94822.09;;;28.01;45.44
22651;BME280;11492;42.646;23.400;2023-06-14T09:56:23;94815.88;;;28.23;46.12
22651;BME280;11492;42.646;23.400;2023-06-14T09:58:54;94812.03;;;28.47;45.39
22651;BME280;11492;42.646;23.400;2023-06-14T10:01:20;94811.94;;;29.10;45.36
22651;BME280;11492;42.646;23.400;2023-06-14T10:03:48;94811.19;;;29.44;45.11
22651;BME280;11492;42.646;23.400;2023-06-14T10:06:16;94814.88;;;29.22;44.62
22651;BME280;11492;42.646;23.400;2023-06-14T10:08:42;94812.28;;;28.90;44.32
22651;BME280;11492;42.646;23.400;2023-06-14T10:11:08;94806.03;;;28.55;44.42
22651;BME280;11492;42.646;23.400;2023-06-14T10:13:35;94807.53;;;28.29;45.74
22651;BME280;11492;42.646;23.400;2023-06-14T10:16:19;94803.13;;;27.89;45.97
22651;BME280;11492;42.646;23.400;2023-06-14T10:19:20;94796.25;;;27.52;47.24
22651;BME280;11492;42.646;23.400;2023-06-14T10:24:28;94800.22;;;26.67;47.34
22651;BME280;11492;42.646;23.400;2023-06-14T10:26:57;94797.41;;;26.53;48.20
22651;BME280;11492;42.646;23.400;2023-06-14T10:29:23;94803.88;;;26.43;49.20
22651;BME280;11492;42.646;23.400;2023-06-14T10:31:50;94803.97;;;26.33;48.95
22651;BME280;11492;42.646;23.400;2023-06-14T10:34:29;94802.44;;;26.27;48.87
22651;BME280;11492;42.646;23.400;2023-06-14T10:37:12;94800.03;;;26.30;48.77
22651;BME280;11492;42.646;23.400;2023-06-14T10:39:42;94787.84;;;26.80;48.80
22651;BME280;11492;42.646;23.400;2023-06-14T10:42:09;94787.63;;;27.41;46.43
22651;BME280;11492;42.646;23.400;2023-06-14T10:44:43;94785.00;;;28.09;45.93
22651;BME280;11492;42.646;23.400;2023-06-14T10:47:32;94778.09;;;28.26;44.77
22651;BME280;11492;42.646;23.400;2023-06-14T10:50:07;94789.69;;;28.61;45.41
22651;BME280;11492;42.646;23.400;2023-06-14T10:52:40;94777.59;;;29.22;43.00
22651;BME280;11492;42.646;23.400;2023-06-14T11:00:23;94761.94;;;30.55;41.35
22651;BME280;11492;42.646;23.400;2023-06-14T11:05:26;94757.44;;;31.02;39.19
22651;BME280;11492;42.646;23.400;2023-06-14T11:10:38;94754.88;;;31.27;36.95
22651;BME280;11492;42.646;23.400;2023-06-14T11:13:04;94763.81;;;31.31;36.88
22651;BME280;11492;42.646;23.400;2023-06-14T11:15:30;94748.59;;;31.39;39.03
22651;BME280;11492;42.646;23.400;2023-06-14T11:17:56;94748.97;;;31.80;39.32
22651;BME280;11492;42.646;23.400;2023-06-14T11:20:26;94756.66;;;31.81;38.94
22651;BME280;11492;42.646;23.400;2023-06-14T11:22:53;94753.34;;;32.01;37.59
22651;BME280;11492;42.646;23.400;2023-06-14T11:25:19;94751.97;;;31.78;37.56
22651;BME280;11492;42.646;23.400;2023-06-14T11:27:45;94749.22;;;31.28;38.79
22651;BME280;11492;42.646;23.400;2023-06-14T11:30:11;94744.00;;;31.23;37.97
22651;BME280;11492;42.646;23.400;2023-06-14T11:32:37;94734.94;;;31.49;38.36
22651;BME280;11492;42.646;23.400;2023-06-14T11:35:04;94734.44;;;31.39;36.88
22651;BME280;11492;42.646;23.400;2023-06-14T11:37:35;94751.63;;;31.71;37.95
22651;BME280;11492;42.646;23.400;2023-06-14T11:40:03;94744.72;;;31.95;37.47
22651;BME280;11492;42.646;23.400;2023-06-14T11:42:33;94741.41;;;31.65;37.53
22651;BME280;11492;42.646;23.400;2023-06-14T11:45:00;94736.72;;;31.79;38.19
22651;BME280;11492;42.646;23.400;2023-06-14T11:47:36;94737.16;;;31.47;37.90
22651;BME280;11492;42.646;23.400;2023-06-14T11:50:03;94732.47;;;31.06;38.99
22651;BME280;11492;42.646;23.400;2023-06-14T11:52:30;94730.84;;;30.50;39.62
22651;BME280;11492;42.646;23.400;2023-06-14T11:54:56;94727.31;;;30.11;40.22
22651;BME280;11492;42.646;23.400;2023-06-14T11:57:22;94730.22;;;29.80;40.56
22651;BME280;11492;42.646;23.400;2023-06-14T11:59:48;94711.31;;;29.68;40.56
22651;BME280;11492;42.646;23.400;2023-06-14T12:02:17;94698.50;;;30.13;40.43
22651;BME280;11492;42.646;23.400;2023-06-14T12:04:46;94698.59;;;30.68;40.50
22651;BME280;11492;42.646;23.400;2023-06-14T12:07:13;94687.31;;;31.51;38.85
22651;BME280;11492;42.646;23.400;2023-06-14T12:12:28;94687.25;;;32.35;36.52
22651;BME280;11492;42.646;23.400;2023-06-14T12:14:57;94683.38;;;31.49;37.65
22651;BME280;11492;42.646;23.400;2023-06-14T12:17:23;94693.78;;;31.75;37.84
22651;BME280;11492;42.646;23.400;2023-06-14T12:19:49;94691.88;;;31.42;37.53
22651;BME280;11492;42.646;23.400;2023-06-14T12:22:15;94699.00;;;30.92;38.76
22651;BME280;11492;42.646;23.400;2023-06-14T12:24:45;94694.84;;;30.09;39.90
22651;BME280;11492;42.646;23.400;2023-06-14T12:27:11;94691.53;;;29.61;40.92
22651;BME280;11492;42.646;23.400;2023-06-14T12:29:44;94689.09;;;29.16;41.64
22651;BME280;11492;42.646;23.400;2023-06-14T12:32:10;94693.47;;;28.73;42.37
22651;BME280;11492;42.646;23.400;2023-06-14T12:34:36;94674.84;;;28.33;43.15
22651;BME280;11492;42.646;23.400;2023-06-14T12:37:02;94678.25;;;28.20;43.52
22651;BME280;11492;42.646;23.400;2023-06-14T12:39:29;94680.22;;;28.15;44.15
22651;BME280;11492;42.646;23.400;2023-06-14T12:41:56;94678.56;;;28.05;43.94
22651;BME280;11492;42.646;23.400;2023-06-14T12:44:22;94669.19;;;28.08;44.90
22651;BME280;11492;42.646;23.400;2023-06-14T12:46:48;94666.84;;;28.20;43.73
22651;BME280;11492;42.646;23.400;2023-06-14T12:49:13;94667.41;;;28.04;42.66
22651;BME280;11492;42.646;23.400;2023-06-14T12:51:39;94659.22;;;27.87;43.20
22651;BME280;11492;42.646;23.400;2023-06-14T12:54:05;94654.53;;;27.66;43.97
22651;BME280;11492;42.646;23.400;2023-06-14T12:56:31;94659.88;;;27.48;44.37
22651;BME280;11492;42.646;23.400;2023-06-14T12:58:56;94663.06;;;27.31;44.99
22651;BME280;11492;42.646;23.400;2023-06-14T13:01:22;94667.66;;;26.44;48.09
22651;BME280;11492;42.646;23.400;2023-06-14T13:03:47;94678.38;;;26.11;51.02
22651;BME280;11492;42.646;23.400;2023-06-14T13:06:13;94675.00;;;25.77;53.95
22651;BME280;11492;42.646;23.400;2023-06-14T13:08:39;94676.38;;;25.37;55.72
22651;BME280;11492;42.646;23.400;2023-06-14T13:11:04;94687.75;;;25.00;56.81